sensor_id;sensor_type;location;lat;lon;timestamp;P1;durP1;ratioP1;P2;durP2;ratioP2
43297;SDS011;28892;55.640;37.532;2023-07-31T00:02:09;6.82;;;3.38;;
43297;SDS011;28892;55.640;37.532;2023-07-31T00:04:35;7.65;;;3.35;;
43297;SDS011;28892;55.640;37.532;2023-07-31T00:07:01;6.05;;;3.25;;
43297;SDS011;28892;55.640;37.532;2023-07-31T00:09:29;5.30;;;3.22;;
43297;SDS011;28892;55.640;37.532;2023-07-31T00:11:55;3.78;;;3.05;;
43297;SDS011;28892;55.640;37.532;2023-07-31T00:14:21;6.22;;;3.60;;
43297;SDS011;28892;55.640;37.532;2023-07-31T00:16:47;4.43;;;3.28;;
43297;SDS011;28892;55.640;37.532;2023-07-31T00:19:12;3.50;;;3.10;;
43297;SDS011;28892;55.640;37.532;2023-07-31T00:21:38;3.80;;;3.40;;
43297;SDS011;28892;55.640;37.532;2023-07-31T00:24:04;6.43;;;3.30;;
43297;SDS011;28892;55.640;37.532;2023-07-31T00:26:30;3.58;;;3.15;;
43297;SDS011;28892;55.640;37.532;2023-07-31T00:28:57;6.28;;;3.42;;
43297;SDS011;28892;55.640;37.532;2023-07-31T00:31:23;4.47;;;3.30;;
43297;SDS011;28892;55.640;37.532;2023-07-31T00:33:49;3.80;;;2.92;;
43297;SDS011;28892;55.640;37.532;2023-07-31T00:36:15;8.80;;;3.67;;
43297;SDS011;28892;55.640;37.532;2023-07-31T00:38:42;6.00;;;3.45;;
43297;SDS011;28892;55.640;37.532;2023-07-31T00:41:08;4.72;;;3.30;;
43297;SDS011;28892;55.640;37.532;2023-07-31T00:43:34;7.47;;;3.63;;
43297;SDS011;28892;55.640;37.532;2023-07-31T00:46:00;6.07;;;3.58;;
43297;SDS011;28892;55.640;37.532;2023-07-31T00:48:26;5.30;;;3.88;;
43297;SDS011;28892;55.640;37.532;2023-07-31T00:50:52;5.43;;;3.60;;
43297;SDS011;28892;55.640;37.532;2023-07-31T00:53:18;4.30;;;3.38;;
43297;SDS011;28892;55.640;37.532;2023-07-31T00:55:44;5.60;;;3.53;;
43297;SDS011;28892;55.640;37.532;2023-07-31T00:58:10;3.92;;;3.30;;
43297;SDS011;28892;55.640;37.532;2023-07-31T01:00:38;5.00;;;3.17;;
43297;SDS011;28892;55.640;37.532;2023-07-31T01:03:04;4.18;;;3.20;;
43297;SDS011;28892;55.640;37.532;2023-07-31T01:05:36;5.28;;;3.60;;
43297;SDS011;28892;55.640;37.532;2023-07-31T01:08:10;4.30;;;3.22;;
43297;SDS011;28892;55.640;37.532;2023-07-31T01:11:02;4.32;;;3.40;;
43297;SDS011;28892;55.640;37.532;2023-07-31T01:13:45;8.55;;;3.42;;
43297;SDS011;28892;55.640;37.532;2023-07-31T01:16:11;5.82;;;3.38;;
43297;SDS011;28892;55.640;37.532;2023-07-31T01:18:37;5.47;;;3.22;;
43297;SDS011;28892;55.640;37.532;2023-07-31T01:21:05;5.82;;;3.60;;
43297;SDS011;28892;55.640;37.532;2023-07-31T01:26:45;4.57;;;3.38;;
43297;SDS011;28892;55.640;37.532;2023-07-31T01:30:14;5.85;;;3.00;;
43297;SDS011;28892;55.640;37.532;2023-07-31T01:32:42;5.28;;;3.38;;
43297;SDS011;28892;55.640;37.532;2023-07-31T01:35:16;3.95;;;3.55;;
43297;SDS011;28892;55.640;37.532;2023-07-31T01:37:42;5.72;;;3.65;;
43297;SDS011;28892;55.640;37.532;2023-07-31T01:40:08;5.88;;;3.53;;
43297;SDS011;28892;55.640;37.532;2023-07-31T01:42:34;6.50;;;3.38;;
43297;SDS011;28892;55.640;37.532;2023-07-31T01:45:00;4.38;;;3.55;;
43297;SDS011;28892;55.640;37.532;2023-07-31T01:47:26;4.13;;;3.47;;
43297;SDS011;28892;55.640;37.532;2023-07-31T01:49:52;4.45;;;3.45;;
43297;SDS011;28892;55.640;37.532;2023-07-31T01:52:17;5.90;;;3.90;;
43297;SDS011;28892;55.640;37.532;2023-07-31T01:54:43;5.43;;;3.50;;
43297;SDS011;28892;55.640;37.532;2023-07-31T01:57:09;5.45;;;3.72;;
43297;SDS011;28892;55.640;37.532;2023-07-31T01:59:35;4.97;;;3.30;;
43297;SDS011;28892;55.640;37.532;2023-07-31T02:02:01;5.93;;;3.88;;
43297;SDS011;28892;55.640;37.532;2023-07-31T02:04:29;6.40;;;4.07;;
43297;SDS011;28892;55.640;37.532;2023-07-31T02:06:55;7.05;;;3.83;;
43297;SDS011;28892;55.640;37.532;2023-07-31T02:09:21;3.88;;;3.38;;
43297;SDS011;28892;55.640;37.532;2023-07-31T02:11:47;5.35;;;3.97;;
43297;SDS011;28892;55.640;37.532;2023-07-31T02:14:13;6.03;;;3.72;;
43297;SDS011;28892;55.640;37.532;2023-07-31T02:16:39;5.50;;;3.75;;
43297;SDS011;28892;55.640;37.532;2023-07-31T02:19:05;5.70;;;3.95;;
43297;SDS011;28892;55.640;37.532;2023-07-31T02:21:31;4.78;;;3.42;;
43297;SDS011;28892;55.640;37.532;2023-07-31T02:23:57;7.80;;;3.67;;
43297;SDS011;28892;55.640;37.532;2023-07-31T02:26:23;7.55;;;4.00;;
43297;SDS011;28892;55.640;37.532;2023-07-31T02:28:48;5.93;;;3.40;;
43297;SDS011;28892;55.640;37.532;2023-07-31T02:31:14;5.00;;;3.17;;
43297;SDS011;28892;55.640;37.532;2023-07-31T02:33:42;4.53;;;3.25;;
43297;SDS011;28892;55.640;37.532;2023-07-31T02:36:25;5.97;;;3.55;;
43297;SDS011;28892;55.640;37.532;2023-07-31T02:38:51;5.70;;;3.45;;
43297;SDS011;28892;55.640;37.532;2023-07-31T02:41:17;5.85;;;3.38;;
43297;SDS011;28892;55.640;37.532;2023-07-31T02:43:43;5.78;;;3.33;;
43297;SDS011;28892;55.640;37.532;2023-07-31T02:46:09;7.28;;;3.88;;
43297;SDS011;28892;55.640;37.532;2023-07-31T02:48:35;5.03;;;3.15;;
43297;SDS011;28892;55.640;37.532;2023-07-31T02:51:01;6.07;;;3.63;;
43297;SDS011;28892;55.640;37.532;2023-07-31T02:53:26;3.50;;;3.20;;
43297;SDS011;28892;55.640;37.532;2023-07-31T02:55:52;4.32;;;3.38;;
43297;SDS011;28892;55.640;37.532;2023-07-31T02:58:18;4.78;;;3.30;;
43297;SDS011;28892;55.640;37.532;2023-07-31T03:00:44;4.28;;;3.30;;
43297;SDS011;28892;55.640;37.532;2023-07-31T03:03:10;4.75;;;3.35;;
43297;SDS011;28892;55.640;37.532;2023-07-31T03:05:37;4.88;;;3.80;;
43297;SDS011;28892;55.640;37.532;2023-07-31T03:08:03;3.47;;;3.17;;
43297;SDS011;28892;55.640;37.532;2023-07-31T03:10:29;4.93;;;3.60;;
43297;SDS011;28892;55.640;37.532;2023-07-31T03:13:03;3.92;;;3.17;;
43297;SDS011;28892;55.640;37.532;2023-07-31T03:15:31;6.30;;;3.60;;
43297;SDS011;28892;55.640;37.532;2023-07-31T03:17:57;5.10;;;3.92;;
43297;SDS011;28892;55.640;37.532;2023-07-31T03:20:23;4.45;;;3.20;;
43297;SDS011;28892;55.640;37.532;2023-07-31T03:22:49;4.75;;;3.15;;
43297;SDS011;28892;55.640;37.532;2023-07-31T03:25:15;4.20;;;3.22;;
43297;SDS011;28892;55.640;37.532;2023-07-31T03:27:41;4.22;;;2.83;;
43297;SDS011;28892;55.640;37.532;2023-07-31T03:30:08;5.95;;;3.28;;
43297;SDS011;28892;55.640;37.532;2023-07-31T03:32:34;6.20;;;3.10;;
43297;SDS011;28892;55.640;37.532;2023-07-31T03:35:00;8.18;;;3.38;;
43297;SDS011;28892;55.640;37.532;2023-07-31T03:37:25;5.43;;;2.88;;
43297;SDS011;28892;55.640;37.532;2023-07-31T03:39:52;4.15;;;3.28;;
43297;SDS011;28892;55.640;37.532;2023-07-31T03:42:18;4.15;;;3.13;;
43297;SDS011;28892;55.640;37.532;2023-07-31T03:44:44;3.83;;;3.17;;
43297;SDS011;28892;55.640;37.532;2023-07-31T03:47:10;4.18;;;3.00;;
43297;SDS011;28892;55.640;37.532;2023-07-31T03:49:37;4.82;;;3.05;;
43297;SDS011;28892;55.640;37.532;2023-07-31T03:52:03;4.65;;;3.10;;
43297;SDS011;28892;55.640;37.532;2023-07-31T03:54:29;3.90;;;2.80;;
43297;SDS011;28892;55.640;37.532;2023-07-31T03:56:55;6.78;;;3.15;;
43297;SDS011;28892;55.640;37.532;2023-07-31T03:59:21;4.93;;;3.15;;
43297;SDS011;28892;55.640;37.532;2023-07-31T04:01:47;5.65;;;2.80;;
43297;SDS011;28892;55.640;37.532;2023-07-31T04:04:13;4.53;;;2.90;;
43297;SDS011;28892;55.640;37.532;2023-07-31T04:06:39;4.57;;;3.30;;
43297;SDS011;28892;55.640;37.532;2023-07-31T04:09:04;4.88;;;2.70;;
43297;SDS011;28892;55.640;37.532;2023-07-31T04:11:30;3.47;;;2.60;;
43297;SDS011;28892;55.640;37.532;2023-07-31T04:13:56;3.63;;;2.60;;
43297;SDS011;28892;55.640;37.532;2023-07-31T04:16:22;5.55;;;3.63;;
43297;SDS011;28892;55.640;37.532;2023-07-31T04:18:48;6.22;;;3.10;;
43297;SDS011;28892;55.640;37.532;2023-07-31T04:21:13;5.70;;;3.03;;
43297;SDS011;28892;55.640;37.532;2023-07-31T04:23:39;4.07;;;3.20;;
43297;SDS011;28892;55.640;37.532;2023-07-31T04:26:05;6.38;;;3.55;;
43297;SDS011;28892;55.640;37.532;2023-07-31T04:28:31;5.38;;;2.88;;
43297;SDS011;28892;55.640;37.532;2023-07-31T04:30:57;4.20;;;2.90;;
43297;SDS011;28892;55.640;37.532;2023-07-31T04:33:23;4.40;;;3.08;;
43297;SDS011;28892;55.640;37.532;2023-07-31T04:35:52;5.82;;;3.22;;
43297;SDS011;28892;55.640;37.532;2023-07-31T04:38:19;3.35;;;2.83;;
43297;SDS011;28892;55.640;37.532;2023-07-31T04:40:45;5.50;;;3.05;;
43297;SDS011;28892;55.640;37.532;2023-07-31T04:43:15;4.30;;;2.90;;
43297;SDS011;28892;55.640;37.532;2023-07-31T04:45:46;3.05;;;2.75;;
43297;SDS011;28892;55.640;37.532;2023-07-31T04:48:13;3.67;;;3.30;;
43297;SDS011;28892;55.640;37.532;2023-07-31T04:50:40;3.83;;;3.28;;
43297;SDS011;28892;55.640;37.532;2023-07-31T04:53:05;5.30;;;3.05;;
43297;SDS011;28892;55.640;37.532;2023-07-31T04:55:31;5.13;;;2.97;;
43297;SDS011;28892;55.640;37.532;2023-07-31T04:57:58;4.10;;;2.58;;
43297;SDS011;28892;55.640;37.532;2023-07-31T05:00:25;5.00;;;2.72;;
43297;SDS011;28892;55.640;37.532;2023-07-31T05:02:51;4.75;;;2.60;;
43297;SDS011;28892;55.640;37.532;2023-07-31T05:05:16;5.10;;;2.60;;
43297;SDS011;28892;55.640;37.532;2023-07-31T05:07:42;2.55;;;2.35;;
43297;SDS011;28892;55.640;37.532;2023-07-31T05:10:08;5.30;;;2.50;;
43297;SDS011;28892;55.640;37.532;2023-07-31T05:12:37;3.92;;;2.60;;
43297;SDS011;28892;55.640;37.532;2023-07-31T05:15:03;4.13;;;2.30;;
43297;SDS011;28892;55.640;37.532;2023-07-31T05:17:30;3.13;;;2.50;;
43297;SDS011;28892;55.640;37.532;2023-07-31T05:19:56;3.78;;;2.50;;
43297;SDS011;28892;55.640;37.532;2023-07-31T05:22:29;2.88;;;2.50;;
43297;SDS011;28892;55.640;37.532;2023-07-31T05:25:24;3.85;;;2.63;;
43297;SDS011;28892;55.640;37.532;2023-07-31T05:27:50;3.85;;;2.50;;
43297;SDS011;28892;55.640;37.532;2023-07-31T05:30:18;4.50;;;2.25;;
43297;SDS011;28892;55.640;37.532;2023-07-31T05:32:44;2.88;;;2.35;;
43297;SDS011;28892;55.640;37.532;2023-07-31T05:35:10;6.10;;;2.60;;
43297;SDS011;28892;55.640;37.532;2023-07-31T05:37:36;3.45;;;2.45;;
43297;SDS011;28892;55.640;37.532;2023-07-31T05:40:02;3.97;;;2.40;;
43297;SDS011;28892;55.640;37.532;2023-07-31T05:42:29;7.35;;;2.50;;
43297;SDS011;28892;55.640;37.532;2023-07-31T05:44:55;3.67;;;2.35;;
43297;SDS011;28892;55.640;37.532;2023-07-31T05:47:21;5.65;;;2.42;;
43297;SDS011;28892;55.640;37.532;2023-07-31T05:49:48;4.60;;;2.25;;
43297;SDS011;28892;55.640;37.532;2023-07-31T05:52:24;2.67;;;2.30;;
43297;SDS011;28892;55.640;37.532;2023-07-31T05:54:54;2.60;;;2.22;;
43297;SDS011;28892;55.640;37.532;2023-07-31T05:57:20;2.40;;;2.17;;
43297;SDS011;28892;55.640;37.532;2023-07-31T05:59:49;3.47;;;2.20;;
43297;SDS011;28892;55.640;37.532;2023-07-31T06:03:33;3.00;;;2.17;;
43297;SDS011;28892;55.640;37.532;2023-07-31T06:06:42;3.25;;;2.05;;
43297;SDS011;28892;55.640;37.532;2023-07-31T06:10:07;5.75;;;2.60;;
43297;SDS011;28892;55.640;37.532;2023-07-31T06:13:37;2.47;;;2.00;;
43297;SDS011;28892;55.640;37.532;2023-07-31T06:16:23;2.95;;;1.95;;
43297;SDS011;28892;55.640;37.532;2023-07-31T06:19:33;2.17;;;1.67;;
43297;SDS011;28892;55.640;37.532;2023-07-31T06:25:26;2.22;;;1.70;;
43297;SDS011;28892;55.640;37.532;2023-07-31T06:28:04;2.45;;;2.03;;
43297;SDS011;28892;55.640;37.532;2023-07-31T06:34:47;2.95;;;1.88;;
43297;SDS011;28892;55.640;37.532;2023-07-31T06:37:16;4.95;;;1.80;;
43297;SDS011;28892;55.640;37.532;2023-07-31T06:39:44;3.45;;;1.90;;
43297;SDS011;28892;55.640;37.532;2023-07-31T06:42:16;3.05;;;1.73;;
43297;SDS011;28892;55.640;37.532;2023-07-31T06:45:08;2.20;;;1.67;;
43297;SDS011;28892;55.640;37.532;2023-07-31T06:48:12;4.38;;;2.20;;
43297;SDS011;28892;55.640;37.532;2023-07-31T06:50:38;5.75;;;2.00;;
43297;SDS011;28892;55.640;37.532;2023-07-31T06:53:09;2.37;;;1.90;;
43297;SDS011;28892;55.640;37.532;2023-07-31T06:55:41;3.95;;;1.80;;
43297;SDS011;28892;55.640;37.532;2023-07-31T06:58:51;1.93;;;1.47;;
43297;SDS011;28892;55.640;37.532;2023-07-31T07:01:17;3.00;;;1.80;;
43297;SDS011;28892;55.640;37.532;2023-07-31T07:03:48;4.20;;;1.50;;
43297;SDS011;28892;55.640;37.532;2023-07-31T07:06:19;2.10;;;1.55;;
43297;SDS011;28892;55.640;37.532;2023-07-31T07:08:45;2.53;;;1.40;;
43297;SDS011;28892;55.640;37.532;2023-07-31T07:11:11;3.70;;;1.95;;
43297;SDS011;28892;55.640;37.532;2023-07-31T07:13:37;4.10;;;1.60;;
43297;SDS011;28892;55.640;37.532;2023-07-31T07:16:23;1.90;;;1.40;;
43297;SDS011;28892;55.640;37.532;2023-07-31T07:18:49;4.05;;;1.70;;
43297;SDS011;28892;55.640;37.532;2023-07-31T07:21:15;3.85;;;1.60;;
43297;SDS011;28892;55.640;37.532;2023-07-31T07:23:43;2.30;;;1.50;;
43297;SDS011;28892;55.640;37.532;2023-07-31T07:26:09;5.07;;;1.98;;
43297;SDS011;28892;55.640;37.532;2023-07-31T07:28:37;8.38;;;2.95;;
43297;SDS011;28892;55.640;37.532;2023-07-31T07:31:03;3.67;;;1.75;;
43297;SDS011;28892;55.640;37.532;2023-07-31T07:33:29;2.80;;;1.60;;
43297;SDS011;28892;55.640;37.532;2023-07-31T07:36:01;2.45;;;1.67;;
43297;SDS011;28892;55.640;37.532;2023-07-31T07:38:30;3.45;;;1.50;;
43297;SDS011;28892;55.640;37.532;2023-07-31T07:40:56;2.47;;;1.70;;
43297;SDS011;28892;55.640;37.532;2023-07-31T07:43:22;1.48;;;1.38;;
43297;SDS011;28892;55.640;37.532;2023-07-31T07:45:51;1.80;;;1.60;;
43297;SDS011;28892;55.640;37.532;2023-07-31T07:48:19;1.70;;;1.42;;
43297;SDS011;28892;55.640;37.532;2023-07-31T07:50:45;4.45;;;2.17;;
43297;SDS011;28892;55.640;37.532;2023-07-31T07:53:11;2.65;;;1.70;;
43297;SDS011;28892;55.640;37.532;2023-07-31T07:55:40;1.70;;;1.50;;
43297;SDS011;28892;55.640;37.532;2023-07-31T07:58:05;4.10;;;1.75;;
43297;SDS011;28892;55.640;37.532;2023-07-31T08:00:36;1.95;;;1.67;;
43297;SDS011;28892;55.640;37.532;2023-07-31T08:03:02;1.55;;;1.42;;
43297;SDS011;28892;55.640;37.532;2023-07-31T08:05:28;1.70;;;1.60;;
43297;SDS011;28892;55.640;37.532;2023-07-31T08:08:14;2.53;;;1.42;;
43297;SDS011;28892;55.640;37.532;2023-07-31T08:11:04;6.28;;;2.17;;
43297;SDS011;28892;55.640;37.532;2023-07-31T08:13:30;4.53;;;3.58;;
43297;SDS011;28892;55.640;37.532;2023-07-31T08:15:56;4.32;;;2.95;;
43297;SDS011;28892;55.640;37.532;2023-07-31T08:18:21;6.65;;;5.07;;
43297;SDS011;28892;55.640;37.532;2023-07-31T08:20:48;5.90;;;4.40;;
43297;SDS011;28892;55.640;37.532;2023-07-31T08:23:22;1.77;;;1.60;;
43297;SDS011;28892;55.640;37.532;2023-07-31T08:25:53;1.55;;;1.45;;
43297;SDS011;28892;55.640;37.532;2023-07-31T08:28:29;2.20;;;1.55;;
43297;SDS011;28892;55.640;37.532;2023-07-31T08:30:55;1.50;;;1.40;;
43297;SDS011;28892;55.640;37.532;2023-07-31T08:33:24;2.88;;;1.58;;
43297;SDS011;28892;55.640;37.532;2023-07-31T08:39:11;2.50;;;1.83;;
43297;SDS011;28892;55.640;37.532;2023-07-31T08:41:39;4.97;;;2.20;;
43297;SDS011;28892;55.640;37.532;2023-07-31T08:44:05;4.65;;;2.30;;
43297;SDS011;28892;55.640;37.532;2023-07-31T08:46:32;5.65;;;1.90;;
43297;SDS011;28892;55.640;37.532;2023-07-31T08:48:59;2.45;;;1.90;;
43297;SDS011;28892;55.640;37.532;2023-07-31T08:51:29;6.13;;;2.38;;
43297;SDS011;28892;55.640;37.532;2023-07-31T08:53:58;3.60;;;2.00;;
43297;SDS011;28892;55.640;37.532;2023-07-31T08:59:31;2.47;;;1.98;;
43297;SDS011;28892;55.640;37.532;2023-07-31T09:04:41;2.13;;;1.77;;
43297;SDS011;28892;55.640;37.532;2023-07-31T09:07:07;5.07;;;1.83;;
43297;SDS011;28892;55.640;37.532;2023-07-31T09:09:37;2.22;;;1.60;;
43297;SDS011;28892;55.640;37.532;2023-07-31T09:12:06;3.35;;;1.88;;
43297;SDS011;28892;55.640;37.532;2023-07-31T09:14:36;2.33;;;1.70;;
43297;SDS011;28892;55.640;37.532;2023-07-31T09:17:34;3.20;;;1.95;;
43297;SDS011;28892;55.640;37.532;2023-07-31T09:20:23;2.13;;;1.73;;
43297;SDS011;28892;55.640;37.532;2023-07-31T09:22:49;2.72;;;2.22;;
43297;SDS011;28892;55.640;37.532;2023-07-31T09:34:13;3.10;;;2.38;;
43297;SDS011;28892;55.640;37.532;2023-07-31T09:36:58;2.30;;;2.10;;
43297;SDS011;28892;55.640;37.532;2023-07-31T09:39:27;4.82;;;2.22;;
43297;SDS011;28892;55.640;37.532;2023-07-31T09:42:16;2.60;;;1.80;;
43297;SDS011;28892;55.640;37.532;2023-07-31T09:44:50;4.20;;;1.73;;
43297;SDS011;28892;55.640;37.532;2023-07-31T09:47:22;4.80;;;1.90;;
43297;SDS011;28892;55.640;37.532;2023-07-31T09:49:55;3.40;;;2.05;;
43297;SDS011;28892;55.640;37.532;2023-07-31T09:52:21;3.05;;;1.67;;
43297;SDS011;28892;55.640;37.532;2023-07-31T09:55:27;3.35;;;2.20;;
43297;SDS011;28892;55.640;37.532;2023-07-31T10:00:54;2.65;;;2.05;;
43297;SDS011;28892;55.640;37.532;2023-07-31T10:03:22;2.88;;;2.40;;
43297;SDS011;28892;55.640;37.532;2023-07-31T10:05:50;2.53;;;2.10;;
43297;SDS011;28892;55.640;37.532;2023-07-31T10:08:17;3.15;;;2.20;;
43297;SDS011;28892;55.640;37.532;2023-07-31T10:10:45;5.05;;;2.20;;
43297;SDS011;28892;55.640;37.532;2023-07-31T10:13:12;6.63;;;2.25;;
43297;SDS011;28892;55.640;37.532;2023-07-31T10:15:39;2.78;;;1.85;;
43297;SDS011;28892;55.640;37.532;2023-07-31T10:18:07;2.35;;;1.73;;
43297;SDS011;28892;55.640;37.532;2023-07-31T10:20:34;2.35;;;2.03;;
43297;SDS011;28892;55.640;37.532;2023-07-31T10:23:02;2.10;;;1.58;;
43297;SDS011;28892;55.640;37.532;2023-07-31T10:25:28;2.08;;;1.88;;
43297;SDS011;28892;55.640;37.532;2023-07-31T10:27:55;4.72;;;2.08;;
43297;SDS011;28892;55.640;37.532;2023-07-31T10:30:27;2.20;;;1.80;;
43297;SDS011;28892;55.640;37.532;2023-07-31T10:32:55;2.35;;;1.95;;
43297;SDS011;28892;55.640;37.532;2023-07-31T10:35:27;2.83;;;1.85;;
43297;SDS011;28892;55.640;37.532;2023-07-31T10:37:53;4.05;;;2.10;;
43297;SDS011;28892;55.640;37.532;2023-07-31T10:40:23;3.10;;;2.00;;
43297;SDS011;28892;55.640;37.532;2023-07-31T10:42:53;1.90;;;1.80;;
43297;SDS011;28892;55.640;37.532;2023-07-31T10:45:33;3.40;;;2.05;;
43297;SDS011;28892;55.640;37.532;2023-07-31T10:48:03;4.07;;;2.10;;
43297;SDS011;28892;55.640;37.532;2023-07-31T10:50:32;2.20;;;2.00;;
43297;SDS011;28892;55.640;37.532;2023-07-31T10:53:02;3.35;;;1.88;;
43297;SDS011;28892;55.640;37.532;2023-07-31T10:55:41;3.35;;;2.00;;
43297;SDS011;28892;55.640;37.532;2023-07-31T10:58:10;3.53;;;1.88;;
43297;SDS011;28892;55.640;37.532;2023-07-31T11:00:38;3.60;;;1.95;;
43297;SDS011;28892;55.640;37.532;2023-07-31T11:03:12;2.45;;;2.13;;
43297;SDS011;28892;55.640;37.532;2023-07-31T11:05:48;2.42;;;2.00;;
43297;SDS011;28892;55.640;37.532;2023-07-31T11:10:45;3.08;;;2.30;;
43297;SDS011;28892;55.640;37.532;2023-07-31T11:13:12;3.17;;;2.13;;
43297;SDS011;28892;55.640;37.532;2023-07-31T11:15:44;3.03;;;2.10;;
43297;SDS011;28892;55.640;37.532;2023-07-31T11:18:10;8.30;;;2.38;;
43297;SDS011;28892;55.640;37.532;2023-07-31T11:20:37;3.22;;;2.80;;
43297;SDS011;28892;55.640;37.532;2023-07-31T11:23:08;3.55;;;2.10;;
43297;SDS011;28892;55.640;37.532;2023-07-31T11:25:36;2.47;;;2.27;;
43297;SDS011;28892;55.640;37.532;2023-07-31T11:28:04;3.63;;;2.17;;
43297;SDS011;28892;55.640;37.532;2023-07-31T11:30:34;2.88;;;2.20;;
43297;SDS011;28892;55.640;37.532;2023-07-31T11:33:01;2.58;;;2.20;;
43297;SDS011;28892;55.640;37.532;2023-07-31T11:35:29;3.72;;;2.35;;
43297;SDS011;28892;55.640;37.532;2023-07-31T11:38:07;2.35;;;1.90;;
43297;SDS011;28892;55.640;37.532;2023-07-31T11:40:41;2.88;;;2.30;;
43297;SDS011;28892;55.640;37.532;2023-07-31T11:43:08;2.17;;;1.98;;
43297;SDS011;28892;55.640;37.532;2023-07-31T11:45:33;7.07;;;2.50;;
43297;SDS011;28892;55.640;37.532;2023-07-31T11:48:00;2.95;;;2.13;;
43297;SDS011;28892;55.640;37.532;2023-07-31T11:50:26;4.38;;;2.45;;
43297;SDS011;28892;55.640;37.532;2023-07-31T11:52:54;2.45;;;2.05;;
43297;SDS011;28892;55.640;37.532;2023-07-31T11:55:24;3.00;;;1.92;;
43297;SDS011;28892;55.640;37.532;2023-07-31T11:57:51;3.85;;;2.33;;
43297;SDS011;28892;55.640;37.532;2023-07-31T12:00:18;4.50;;;2.15;;
43297;SDS011;28892;55.640;37.532;2023-07-31T12:02:45;2.58;;;2.33;;
43297;SDS011;28892;55.640;37.532;2023-07-31T12:05:14;2.83;;;2.22;;
43297;SDS011;28892;55.640;37.532;2023-07-31T12:07:47;3.70;;;2.38;;
43297;SDS011;28892;55.640;37.532;2023-07-31T12:10:31;3.72;;;2.10;;
43297;SDS011;28892;55.640;37.532;2023-07-31T12:15:34;2.92;;;2.08;;
43297;SDS011;28892;55.640;37.532;2023-07-31T12:18:00;2.95;;;1.90;;
43297;SDS011;28892;55.640;37.532;2023-07-31T12:20:31;2.47;;;2.25;;
43297;SDS011;28892;55.640;37.532;2023-07-31T12:23:01;3.13;;;2.30;;
43297;SDS011;28892;55.640;37.532;2023-07-31T12:25:28;2.55;;;2.08;;
43297;SDS011;28892;55.640;37.532;2023-07-31T12:27:56;4.80;;;2.28;;
43297;SDS011;28892;55.640;37.532;2023-07-31T12:30:26;3.40;;;2.17;;
43297;SDS011;28892;55.640;37.532;2023-07-31T12:32:55;3.15;;;2.15;;
43297;SDS011;28892;55.640;37.532;2023-07-31T12:35:21;2.55;;;2.35;;
43297;SDS011;28892;55.640;37.532;2023-07-31T12:37:46;3.28;;;2.08;;
43297;SDS011;28892;55.640;37.532;2023-07-31T12:40:12;3.55;;;2.00;;
43297;SDS011;28892;55.640;37.532;2023-07-31T12:42:38;2.70;;;2.40;;
43297;SDS011;28892;55.640;37.532;2023-07-31T12:45:04;4.88;;;2.15;;
43297;SDS011;28892;55.640;37.532;2023-07-31T12:47:30;2.55;;;1.77;;
43297;SDS011;28892;55.640;37.532;2023-07-31T12:49:56;3.20;;;2.17;;
43297;SDS011;28892;55.640;37.532;2023-07-31T12:52:22;3.20;;;2.28;;
43297;SDS011;28892;55.640;37.532;2023-07-31T12:54:48;3.28;;;2.10;;
43297;SDS011;28892;55.640;37.532;2023-07-31T12:57:13;2.28;;;2.08;;
43297;SDS011;28892;55.640;37.532;2023-07-31T12:59:39;2.50;;;2.08;;
43297;SDS011;28892;55.640;37.532;2023-07-31T13:02:05;2.95;;;2.15;;
43297;SDS011;28892;55.640;37.532;2023-07-31T13:04:31;3.60;;;2.50;;
43297;SDS011;28892;55.640;37.532;2023-07-31T13:06:57;2.45;;;2.20;;
43297;SDS011;28892;55.640;37.532;2023-07-31T13:09:23;2.22;;;2.03;;
43297;SDS011;28892;55.640;37.532;2023-07-31T13:11:49;4.63;;;2.15;;
43297;SDS011;28892;55.640;37.532;2023-07-31T13:14:16;2.40;;;2.00;;
43297;SDS011;28892;55.640;37.532;2023-07-31T13:16:44;5.63;;;2.38;;
43297;SDS011;28892;55.640;37.532;2023-07-31T13:19:10;3.17;;;2.53;;
43297;SDS011;28892;55.640;37.532;2023-07-31T13:21:36;2.63;;;2.30;;
43297;SDS011;28892;55.640;37.532;2023-07-31T13:24:02;3.88;;;2.97;;
43297;SDS011;28892;55.640;37.532;2023-07-31T13:26:29;3.10;;;2.50;;
43297;SDS011;28892;55.640;37.532;2023-07-31T13:28:55;3.85;;;2.80;;
43297;SDS011;28892;55.640;37.532;2023-07-31T13:31:21;5.75;;;2.70;;
43297;SDS011;28892;55.640;37.532;2023-07-31T13:33:46;4.80;;;2.63;;
43297;SDS011;28892;55.640;37.532;2023-07-31T13:36:12;3.28;;;2.15;;
43297;SDS011;28892;55.640;37.532;2023-07-31T13:38:39;5.07;;;2.40;;
43297;SDS011;28892;55.640;37.532;2023-07-31T13:41:05;2.97;;;2.08;;
43297;SDS011;28892;55.640;37.532;2023-07-31T13:43:31;5.03;;;2.13;;
43297;SDS011;28892;55.640;37.532;2023-07-31T13:45:56;4.18;;;2.63;;
43297;SDS011;28892;55.640;37.532;2023-07-31T13:48:22;3.25;;;2.88;;
43297;SDS011;28892;55.640;37.532;2023-07-31T13:50:48;3.75;;;2.25;;
43297;SDS011;28892;55.640;37.532;2023-07-31T13:53:14;2.78;;;2.20;;
43297;SDS011;28892;55.640;37.532;2023-07-31T13:55:40;4.32;;;2.08;;
43297;SDS011;28892;55.640;37.532;2023-07-31T13:58:06;4.05;;;2.35;;
43297;SDS011;28892;55.640;37.532;2023-07-31T14:00:34;5.68;;;2.83;;
43297;SDS011;28892;55.640;37.532;2023-07-31T14:03:00;5.32;;;2.35;;
43297;SDS011;28892;55.640;37.532;2023-07-31T14:05:26;4.07;;;2.53;;
43297;SDS011;28892;55.640;37.532;2023-07-31T14:07:52;5.28;;;2.70;;
43297;SDS011;28892;55.640;37.532;2023-07-31T14:10:18;3.30;;;2.33;;
43297;SDS011;28892;55.640;37.532;2023-07-31T14:12:44;4.15;;;2.47;;
43297;SDS011;28892;55.640;37.532;2023-07-31T14:15:10;3.15;;;2.20;;
43297;SDS011;28892;55.640;37.532;2023-07-31T14:17:36;5.90;;;2.50;;
43297;SDS011;28892;55.640;37.532;2023-07-31T14:20:02;2.63;;;2.30;;
43297;SDS011;28892;55.640;37.532;2023-07-31T14:22:29;4.75;;;2.60;;
43297;SDS011;28892;55.640;37.532;2023-07-31T14:24:55;3.33;;;2.28;;
43297;SDS011;28892;55.640;37.532;2023-07-31T14:27:22;3.28;;;2.22;;
43297;SDS011;28892;55.640;37.532;2023-07-31T14:29:47;4.50;;;2.63;;
43297;SDS011;28892;55.640;37.532;2023-07-31T14:32:13;4.82;;;2.95;;
43297;SDS011;28892;55.640;37.532;2023-07-31T14:34:42;7.53;;;2.47;;
43297;SDS011;28892;55.640;37.532;2023-07-31T14:37:08;4.97;;;2.67;;
43297;SDS011;28892;55.640;37.532;2023-07-31T14:39:33;4.55;;;2.70;;
43297;SDS011;28892;55.640;37.532;2023-07-31T14:41:59;6.28;;;2.70;;
43297;SDS011;28892;55.640;37.532;2023-07-31T14:44:25;2.88;;;2.53;;
43297;SDS011;28892;55.640;37.532;2023-07-31T14:46:50;5.38;;;2.83;;
43297;SDS011;28892;55.640;37.532;2023-07-31T14:49:17;5.25;;;2.75;;
43297;SDS011;28892;55.640;37.532;2023-07-31T14:51:42;5.07;;;2.40;;
43297;SDS011;28892;55.640;37.532;2023-07-31T14:54:08;2.92;;;2.25;;
43297;SDS011;28892;55.640;37.532;2023-07-31T14:56:34;5.15;;;2.30;;
43297;SDS011;28892;55.640;37.532;2023-07-31T14:59:03;2.88;;;2.28;;
43297;SDS011;28892;55.640;37.532;2023-07-31T15:01:28;3.42;;;2.63;;
43297;SDS011;28892;55.640;37.532;2023-07-31T15:03:54;9.52;;;2.47;;
43297;SDS011;28892;55.640;37.532;2023-07-31T15:06:20;4.55;;;2.35;;
43297;SDS011;28892;55.640;37.532;2023-07-31T15:08:48;2.80;;;2.20;;
43297;SDS011;28892;55.640;37.532;2023-07-31T15:11:14;3.10;;;2.30;;
43297;SDS011;28892;55.640;37.532;2023-07-31T15:13:41;3.88;;;2.28;;
43297;SDS011;28892;55.640;37.532;2023-07-31T15:16:07;3.13;;;2.28;;
43297;SDS011;28892;55.640;37.532;2023-07-31T15:18:32;5.30;;;4.80;;
43297;SDS011;28892;55.640;37.532;2023-07-31T15:21:01;4.28;;;2.95;;
43297;SDS011;28892;55.640;37.532;2023-07-31T15:23:27;9.70;;;8.27;;